Time;durP1;ratioP1;P1;durP2;ratioP2;P2;SDS_P1;SDS_P2;PMS_P1;PMS_P2;Temp;Humidity;BMP_temperature;BMP_pressure;BME280_temperature;BME280_humidity;BME280_pressure;Samples;Min_cycle;Max_cycle;Signal;HPM_P1;HPM_P2
2023/09/11 00:02:31;;;;;;;6.68;4.80;;;;;;;21.02;51.99;97843.41;10462449;28;20087;-62
2023/09/11 00:07:52;;;;;;;6.93;4.95;;;;;;;20.96;51.92;97836.84;10462474;28;20494;-62
2023/09/11 00:13:13;;;;;;;6.65;4.97;;;;;;;20.91;51.85;97833.16;10462157;28;20148;-62
2023/09/11 00:18:33;;;;;;;6.63;4.85;;;;;;;20.72;52.12;97829.06;10460903;28;20041;-62
2023/09/11 00:23:54;;;;;;;9.45;5.43;;;;;;;20.39;52.46;97832.31;10461627;28;20076;-62
2023/09/11 00:29:15;;;;;;;8.65;5.97;;;;;;;20.00;53.40;97829.00;10461652;28;20064;-62
2023/09/11 00:34:36;;;;;;;10.27;7.28;;;;;;;19.68;54.02;97825.81;10446093;28;20083;-62
2023/09/11 00:39:56;;;;;;;8.63;6.93;;;;;;;19.50;54.92;97825.22;10446185;28;20474;-62
2023/09/11 00:45:17;;;;;;;9.15;6.38;;;;;;;19.43;55.32;97821.44;10460943;28;20167;-62
2023/09/11 00:50:38;;;;;;;7.88;5.55;;;;;;;19.37;55.65;97812.75;10445620;28;20506;-62
2023/09/11 00:55:59;;;;;;;9.45;5.65;;;;;;;19.30;56.17;97810.34;10445599;28;20056;-62
2023/09/11 01:01:21;;;;;;;8.15;5.57;;;;;;;19.26;56.59;97813.06;10431256;28;20069;-62
2023/09/11 01:06:42;;;;;;;7.63;5.57;;;;;;;19.23;56.85;97808.72;10431239;28;20572;-62
2023/09/11 01:12:03;;;;;;;7.07;5.47;;;;;;;19.11;56.98;97823.88;10444853;28;20146;-62
2023/09/11 01:17:38;;;;;;;10.80;5.80;;;;;;;18.95;57.16;97822.56;10444637;28;20518;-62
2023/09/11 01:23:14;;;;;;;8.43;6.47;;;;;;;18.79;57.92;97825.53;10444482;28;20175;-62
2023/09/11 01:29:13;;;;;;;10.23;6.13;;;;;;;18.72;58.83;97821.03;10444057;28;20129;-62
2023/09/11 01:34:33;;;;;;;10.40;6.80;;;;;;;18.66;58.38;97813.06;10458843;28;20467;-62
2023/09/11 01:39:54;;;;;;;11.30;6.40;;;;;;;18.63;58.85;97819.28;10443967;28;20072;-62
2023/09/11 01:45:15;;;;;;;7.95;5.95;;;;;;;18.66;59.05;97820.81;10429556;28;20117;-62
2023/09/11 01:50:36;;;;;;;10.35;7.15;;;;;;;18.67;58.93;97800.38;10443493;28;20068;-62
2023/09/11 01:55:57;;;;;;;10.27;6.75;;;;;;;18.67;59.17;97808.13;10443085;28;20076;-62
2023/09/11 02:01:18;;;;;;;9.80;7.20;;;;;;;18.65;59.59;97808.78;10428943;28;20151;-62
2023/09/11 02:06:38;;;;;;;10.82;7.93;;;;;;;18.62;60.03;97817.78;10442778;28;20124;-62
2023/09/11 02:11:59;;;;;;;8.38;6.95;;;;;;;18.58;60.02;97807.81;10442405;28;20083;-62
2023/09/11 02:17:20;;;;;;;10.23;6.82;;;;;;;18.50;60.20;97801.84;10457521;28;20132;-62
2023/09/11 02:22:41;;;;;;;10.30;7.75;;;;;;;18.39;60.41;97807.78;10442003;28;20128;-62
2023/09/11 02:28:01;;;;;;;8.50;7.47;;;;;;;18.25;60.96;97811.50;10442196;28;20128;-62
2023/09/11 02:33:22;;;;;;;10.02;7.53;;;;;;;18.19;61.14;97799.25;10456930;28;20210;-62
2023/09/11 02:38:43;;;;;;;10.70;7.28;;;;;;;18.20;61.74;97806.34;10441183;28;20147;-62
2023/09/11 02:44:05;;;;;;;11.40;8.57;;;;;;;18.26;61.91;97804.50;10456780;28;20116;-62
2023/09/11 02:49:26;;;;;;;9.55;7.35;;;;;;;18.35;62.15;97801.97;10456588;28;20072;-62
2023/09/11 02:54:47;;;;;;;10.05;8.00;;;;;;;18.32;62.06;97801.16;10456726;28;20068;-62
2023/09/11 03:00:09;;;;;;;13.75;8.75;;;;;;;18.25;62.14;97808.69;10441338;28;20076;-62
2023/09/11 03:05:33;;;;;;;9.48;8.35;;;;;;;18.14;62.53;97804.00;10441132;28;20057;-62
2023/09/11 03:10:54;;;;;;;12.13;7.80;;;;;;;18.00;62.57;97798.53;10427658;28;20041;-62
2023/09/11 03:16:15;;;;;;;12.02;8.73;;;;;;;17.89;63.04;97793.88;10456146;28;20139;-62
2023/09/11 03:21:43;;;;;;;11.27;8.48;;;;;;;17.86;63.43;97791.63;10441007;28;20132;-62
2023/09/11 03:27:04;;;;;;;12.70;8.73;;;;;;;17.96;63.52;97789.91;10455856;28;20065;-62
2023/09/11 03:32:24;;;;;;;10.93;7.82;;;;;;;18.03;63.82;97791.59;10440701;28;20128;-62
2023/09/11 03:37:46;;;;;;;13.45;8.57;;;;;;;18.00;63.69;97792.88;10440586;28;20584;-62
2023/09/11 03:43:07;;;;;;;10.93;7.70;;;;;;;17.93;63.54;97791.19;10426940;28;20126;-62
2023/09/11 03:48:29;;;;;;;10.90;7.55;;;;;;;17.76;64.10;97788.38;10455596;28;20045;-62
2023/09/11 03:53:50;;;;;;;11.18;8.23;;;;;;;17.65;64.38;97782.28;10447853;28;20482;-62
2023/09/11 03:59:16;;;;;;;13.27;7.78;;;;;;;17.61;64.82;97784.22;10447814;28;20067;-62
2023/09/11 04:04:38;;;;;;;10.48;7.38;;;;;;;17.59;65.02;97778.50;10462298;28;20140;-62
2023/09/11 04:09:58;;;;;;;10.45;7.38;;;;;;;17.51;65.07;97772.53;10447267;28;20116;-62
2023/09/11 04:15:19;;;;;;;9.95;7.72;;;;;;;17.46;65.31;97775.16;10433425;28;20568;-62
2023/09/11 04:20:40;;;;;;;10.80;8.10;;;;;;;17.38;65.51;97771.31;10446916;28;20076;-62
2023/09/11 04:26:01;;;;;;;12.05;8.27;;;;;;;17.31;66.01;97770.31;10432632;28;20077;-62
2023/09/11 04:31:21;;;;;;;10.85;7.78;;;;;;;17.28;66.21;97763.16;10432518;28;20502;-62
2023/09/11 04:36:42;;;;;;;11.57;7.88;;;;;;;17.33;66.22;97770.41;10432596;28;20068;-62
2023/09/11 04:42:03;;;;;;;13.63;7.90;;;;;;;17.47;66.53;97773.09;10460965;28;20541;-62
2023/09/11 04:47:30;;;;;;;11.05;8.05;;;;;;;17.64;66.53;97769.53;10445653;28;20117;-62
2023/09/11 04:52:55;;;;;;;12.77;7.25;;;;;;;17.90;66.38;97772.00;10432282;28;20120;-62
2023/09/11 04:58:17;;;;;;;12.35;7.47;;;;;;;18.33;66.95;97774.34;10445384;28;20137;-62
2023/09/11 05:03:38;;;;;;;11.65;7.72;;;;;;;18.82;65.98;97784.66;10444329;28;20149;-62
2023/09/11 05:09:00;;;;;;;11.10;7.72;;;;;;;20.39;66.26;97781.28;10431035;28;20124;-62
2023/09/11 05:14:35;;;;;;;10.05;7.90;;;;;;;24.20;60.45;97773.38;10444542;28;20123;-62
2023/09/11 05:19:56;;;;;;;10.43;7.50;;;;;;;27.43;55.03;97777.47;10430503;28;20052;-63
2023/09/11 05:25:17;;;;;;;12.15;7.25;;;;;;;30.15;50.00;97781.47;10443927;28;20076;-63
2023/09/11 05:30:38;;;;;;;10.65;6.97;;;;;;;32.45;45.10;97790.53;10459069;28;20179;-63
2023/09/11 05:35:58;;;;;;;9.18;7.75;;;;;;;34.43;41.01;97789.69;10458824;28;20133;-65
2023/09/11 05:41:20;;;;;;;10.13;6.80;;;;;;;35.92;35.82;97796.19;10458591;28;20049;-64
2023/09/11 05:46:41;;;;;;;11.32;6.60;;;;;;;37.06;31.99;97786.34;10457757;28;20056;-66
2023/09/11 05:52:02;;;;;;;11.48;6.38;;;;;;;38.96;28.82;97785.75;10458326;28;20498;-65
2023/09/11 05:57:23;;;;;;;8.35;6.82;;;;;;;40.31;26.50;97786.53;10457750;28;20056;-66
2023/09/11 06:02:46;;;;;;;7.35;5.85;;;;;;;42.37;23.73;97789.81;10457680;28;20106;-66
2023/09/11 06:08:07;;;;;;;8.52;5.70;;;;;;;44.43;21.38;97794.28;10457738;28;20052;-66
2023/09/11 06:13:28;;;;;;;7.85;6.45;;;;;;;46.26;18.61;97789.94;10456448;28;20129;-66
2023/09/11 06:18:49;;;;;;;9.55;5.30;;;;;;;47.79;15.35;97798.50;10457328;28;20076;-67
2023/09/11 06:24:11;;;;;;;11.27;6.38;;;;;;;50.25;12.53;97793.94;10442200;28;20375;-66
2023/09/11 06:29:32;;;;;;;8.15;5.32;;;;;;;50.81;10.94;97790.16;10457117;28;20128;-67
2023/09/11 06:34:54;;;;;;;9.57;5.57;;;;;;;51.03;10.44;97790.97;10442021;28;20116;-67
2023/09/11 06:40:14;;;;;;;7.78;4.68;;;;;;;51.43;10.48;97788.59;10456743;28;20166;-66
2023/09/11 06:45:35;;;;;;;5.28;4.45;;;;;;;52.57;9.73;97786.03;10441563;28;20040;-67
2023/09/11 06:50:56;;;;;;;7.25;4.63;;;;;;;53.40;8.48;97773.63;10441587;28;20079;-67
2023/09/11 06:56:17;;;;;;;8.10;4.35;;;;;;;53.71;8.61;97782.91;10456520;28;20083;-67
2023/09/11 07:01:40;;;;;;;7.45;4.10;;;;;;;54.92;8.05;97782.94;10456130;28;20399;-68
2023/09/11 07:07:01;;;;;;;6.65;3.85;;;;;;;55.04;7.71;97786.84;10456253;28;20056;-67
2023/09/11 07:12:22;;;;;;;6.15;3.90;;;;;;;56.64;7.42;97785.19;10456100;28;20072;-67
2023/09/11 07:17:47;;;;;;;4.45;3.67;;;;;;;57.20;6.52;97776.88;10456269;28;20056;-67
2023/09/11 07:23:08;;;;;;;7.90;3.65;;;;;;;57.57;6.27;97781.31;10441420;28;20525;-68
2023/09/11 07:28:30;;;;;;;5.32;3.28;;;;;;;57.68;6.43;97783.72;10463626;28;20079;-68
2023/09/11 07:33:51;;;;;;;5.05;3.55;;;;;;;57.55;6.39;97779.25;10463570;28;20076;-68
2023/09/11 07:39:12;;;;;;;7.85;3.85;;;;;;;58.27;6.14;97773.88;10463541;28;20049;-68
2023/09/11 07:44:33;;;;;;;8.90;4.00;;;;;;;58.56;5.80;97776.22;10448351;28;20120;-68
2023/09/11 07:49:53;;;;;;;7.28;3.58;;;;;;;57.97;6.17;97768.78;10448021;28;20144;-68
2023/09/11 07:55:14;;;;;;;7.72;3.85;;;;;;;57.89;6.17;97768.19;10462893;28;20452;-67
2023/09/11 08:00:38;;;;;;;15.80;4.17;;;;;;;57.17;6.20;97760.72;10462738;28;20467;-68
2023/09/11 08:06:04;;;;;;;6.68;3.13;;;;;;;58.00;6.26;97755.56;10462042;28;20132;-68
2023/09/11 08:11:26;;;;;;;7.35;3.70;;;;;;;59.19;5.76;97752.94;10448029;28;20443;-68
2023/09/11 08:16:47;;;;;;;9.10;3.95;;;;;;;58.73;5.58;97763.47;10433065;28;20166;-68
2023/09/11 08:22:08;;;;;;;5.45;3.40;;;;;;;58.74;5.53;97752.81;10461868;28;20053;-68
2023/09/11 08:27:28;;;;;;;8.40;3.42;;;;;;;59.36;5.90;97760.47;10461471;28;20060;-68
2023/09/11 08:32:49;;;;;;;8.70;3.50;;;;;;;59.21;5.13;97749.63;10461194;28;20477;-68
2023/09/11 08:38:10;;;;;;;9.00;3.75;;;;;;;59.46;5.21;97759.78;10460144;28;20053;-68
2023/09/11 08:43:31;;;;;;;10.82;3.55;;;;;;;60.38;5.08;97765.41;10460975;28;20076;-68
2023/09/11 08:48:55;;;;;;;7.07;3.47;;;;;;;60.14;5.33;97766.47;10460781;28;20056;-68
2023/09/11 08:54:16;;;;;;;9.52;4.00;;;;;;;60.28;5.40;97769.81;10460518;28;20371;-68
2023/09/11 08:59:38;;;;;;;11.38;4.47;;;;;;;59.98;4.57;97762.63;10445696;28;20076;-68
2023/09/11 09:05:00;;;;;;;6.10;3.90;;;;;;;59.42;5.70;97742.28;10459808;28;20057;-68
2023/09/11 09:10:22;;;;;;;9.60;3.90;;;;;;;58.43;5.76;97741.78;10444976;28;20475;-68
2023/09/11 09:15:45;;;;;;;8.40;3.53;;;;;;;57.68;6.38;97739.38;10459825;28;20127;-68
2023/09/11 09:21:07;;;;;;;9.35;3.83;;;;;;;57.66;6.06;97733.63;10459464;28;20099;-68
2023/09/11 09:26:28;;;;;;;5.13;4.03;;;;;;;58.54;5.68;97726.09;10459241;28;20076;-68
2023/09/11 09:31:48;;;;;;;8.57;3.90;;;;;;;59.21;5.79;97722.56;10458762;28;20126;-68
2023/09/11 09:37:15;;;;;;;6.82;4.15;;;;;;;58.47;5.63;97723.19;10443702;28;20057;-68
2023/09/11 09:42:40;;;;;;;5.85;3.80;;;;;;;57.74;6.13;97714.59;10443618;28;20055;-68
2023/09/11 09:48:09;;;;;;;9.98;4.05;;;;;;;57.60;6.49;97701.41;10443448;28;20411;-68
2023/09/11 09:53:41;;;;;;;6.55;3.55;;;;;;;54.93;7.68;97703.63;10444077;28;20060;-68
2023/09/11 09:59:02;;;;;;;9.77;3.27;;;;;;;52.79;8.55;97688.38;10457934;28;20502;-68
2023/09/11 10:04:23;;;;;;;7.78;2.80;;;;;;;54.96;7.95;97674.88;10443042;28;20053;-68
2023/09/11 10:09:44;;;;;;;6.43;3.35;;;;;;;56.13;6.96;97671.53;10428875;28;20143;-68
2023/09/11 10:15:05;;;;;;;9.77;3.50;;;;;;;56.57;6.88;97658.75;10457396;28;20045;-68
2023/09/11 10:20:27;;;;;;;6.68;3.47;;;;;;;55.62;7.58;97656.66;10442496;28;20056;-68
2023/09/11 10:25:50;;;;;;;5.22;3.38;;;;;;;55.72;7.12;97639.13;10456753;28;20423;-69
2023/09/11 10:31:25;;;;;;;6.47;3.72;;;;;;;55.12;8.09;97648.41;10456880;28;20489;-68
2023/09/11 10:36:47;;;;;;;6.40;3.10;;;;;;;54.07;8.10;97643.94;10456575;28;20045;-69
2023/09/11 10:42:08;;;;;;;3.90;2.97;;;;;;;56.03;7.74;97627.88;10456801;28;20134;-68
2023/09/11 10:47:29;;;;;;;6.57;3.10;;;;;;;56.95;6.96;97628.59;10441881;28;20049;-68
2023/09/11 10:52:56;;;;;;;7.25;3.17;;;;;;;54.89;7.57;97620.41;10427727;28;20527;-69
2023/09/11 10:58:17;;;;;;;4.72;2.97;;;;;;;51.09;8.96;97621.03;10441846;28;20045;-68
2023/09/11 11:03:38;;;;;;;8.05;3.10;;;;;;;47.21;11.88;97615.63;10449403;28;20067;-67
2023/09/11 11:09:00;;;;;;;4.13;3.05;;;;;;;48.40;12.49;97619.47;10449962;28;20064;-68
2023/09/11 11:14:21;;;;;;;5.35;2.97;;;;;;;51.12;10.63;97606.66;10449454;28;20076;-68
2023/09/11 11:19:59;;;;;;;4.15;2.90;;;;;;;51.89;9.72;97598.78;10464392;28;20053;-68
2023/09/11 11:25:20;;;;;;;4.22;2.97;;;;;;;51.53;9.34;97588.34;10449002;28;20103;-68
2023/09/11 11:30:43;;;;;;;6.78;3.30;;;;;;;47.46;11.66;97593.56;10448755;28;20064;-67
2023/09/11 11:36:07;;;;;;;6.57;3.80;;;;;;;41.98;14.92;97600.84;10435214;28;20502;-66
2023/09/11 11:41:30;;;;;;;9.57;4.45;;;;;;;38.20;18.26;97607.66;10448514;28;20053;-65
2023/09/11 11:46:52;;;;;;;8.50;4.40;;;;;;;36.16;21.26;97606.53;10462072;28;20471;-66
2023/09/11 11:52:13;;;;;;;7.10;4.88;;;;;;;34.95;22.71;97601.25;10448352;28;20045;-66
2023/09/11 11:57:34;;;;;;;8.65;5.40;;;;;;;34.80;24.60;97594.44;10447786;28;20052;-66
2023/09/11 12:03:02;;;;;;;7.57;5.70;;;;;;;34.04;25.69;97601.75;10462257;28;20509;-66
2023/09/11 12:08:23;;;;;;;9.55;5.90;;;;;;;33.30;26.25;97602.97;10462168;28;20115;-65
2023/09/11 12:13:45;;;;;;;12.55;6.03;;;;;;;32.62;28.05;97603.16;10459754;28;20053;-65
2023/09/11 12:19:10;;;;;;;9.52;6.03;;;;;;;32.69;28.39;97601.53;10461570;28;20060;-65
2023/09/11 12:24:41;;;;;;;;;;;;;;;33.63;27.92;97605.03;10461837;28;20069;-66
2023/09/11 12:30:05;;;;;;;8.83;5.67;;;;;;;34.80;26.83;97591.53;10461653;28;19925;-65
2023/09/11 12:35:32;;;;;;;9.25;5.53;;;;;;;34.65;26.36;97579.00;10461288;28;20283;-65
2023/09/11 12:40:53;;;;;;;8.00;5.85;;;;;;;33.35;28.29;97573.94;10461051;28;20111;-64
2023/09/11 12:46:18;;;;;;;10.32;5.70;;;;;;;32.50;29.27;97570.91;10460904;28;20041;-65
2023/09/11 12:51:39;;;;;;;6.75;5.90;;;;;;;32.38;29.71;97572.63;10445717;28;20458;-65
2023/09/11 12:57:01;;;;;;;9.15;5.68;;;;;;;32.03;30.57;97574.78;10445832;28;20057;-65
2023/09/11 13:02:22;;;;;;;7.55;5.78;;;;;;;31.96;31.02;97571.31;10459949;28;20399;-65
2023/09/11 13:07:43;;;;;;;9.40;5.70;;;;;;;32.91;30.24;97556.25;10460141;28;20482;-65
2023/09/11 13:13:05;;;;;;;5.97;4.95;;;;;;;33.52;28.83;97540.97;10431227;28;20186;-65
2023/09/11 13:18:29;;;;;;;6.82;5.03;;;;;;;33.49;28.54;97539.59;10445165;28;20053;-65
2023/09/11 13:23:50;;;;;;;;;;;;;;;33.26;28.79;97532.97;10459465;28;20076;-65
2023/09/11 13:29:13;;;;;;;8.70;5.40;;;;;;;32.73;29.19;97534.28;10444294;28;20388;-65
2023/09/11 13:34:34;;;;;;;9.00;5.20;;;;;;;32.03;30.11;97529.31;10458772;28;20051;-65
2023/09/11 13:39:55;;;;;;;8.77;5.28;;;;;;;32.16;30.26;97536.25;10458306;28;20406;-65
2023/09/11 13:45:17;;;;;;;6.60;5.20;;;;;;;31.88;30.19;97531.78;10458198;28;20049;-65
2023/09/11 13:50:37;;;;;;;8.10;4.95;;;;;;;32.05;29.52;97526.41;10458526;28;20067;-65
2023/09/11 13:55:59;;;;;;;10.43;5.07;;;;;;;31.76;29.74;97525.56;10458116;28;20045;-65
2023/09/11 14:01:20;;;;;;;6.75;4.57;;;;;;;31.49;30.09;97516.69;10457499;28;20049;-65
2023/09/11 14:06:42;;;;;;;7.07;4.80;;;;;;;31.45;30.24;97514.59;10457222;28;20057;-65
2023/09/11 14:12:03;;;;;;;7.53;5.00;;;;;;;31.36;30.21;97513.31;10457773;28;20045;-65
2023/09/11 14:17:24;;;;;;;8.02;5.50;;;;;;;31.20;31.08;97510.72;10457135;28;20383;-64
2023/09/11 14:22:45;;;;;;;7.88;5.57;;;;;;;31.13;31.30;97512.28;10457231;28;20037;-64
2023/09/11 14:28:06;;;;;;;10.07;5.90;;;;;;;31.02;31.63;97498.06;10428578;28;20056;-64
2023/09/11 14:33:27;;;;;;;9.83;5.97;;;;;;;30.93;32.27;97496.78;10455966;28;20041;-65
2023/09/11 14:38:48;;;;;;;7.03;5.37;;;;;;;30.95;32.54;97499.63;10456333;28;20467;-65
2023/09/11 14:44:11;;;;;;;8.80;5.68;;;;;;;31.42;32.60;97481.50;10441234;28;20510;-65
2023/09/11 14:49:32;;;;;;;10.70;5.30;;;;;;;31.68;31.60;97480.25;10441736;28;20056;-65
2023/09/11 14:54:53;;;;;;;7.47;5.80;;;;;;;31.65;31.85;97492.56;10456332;28;20368;-64
2023/09/11 15:00:15;;;;;;;6.85;5.25;;;;;;;31.60;31.94;97486.91;10456325;28;20498;-65
2023/09/11 15:05:36;;;;;;;8.45;5.25;;;;;;;31.19;32.20;97492.00;10455786;28;20053;-65
2023/09/11 15:10:58;;;;;;;6.95;5.05;;;;;;;30.78;32.33;97490.53;10455949;28;20049;-65
2023/09/11 15:16:21;;;;;;;9.02;5.18;;;;;;;30.66;32.78;97481.41;10441298;28;20132;-64
2023/09/11 15:21:42;;;;;;;10.48;5.13;;;;;;;30.63;33.00;97477.09;10455911;28;20060;-65
2023/09/11 15:27:04;;;;;;;10.00;5.73;;;;;;;30.54;33.40;97476.53;10455814;28;20060;-65
2023/09/11 15:32:25;;;;;;;6.65;5.40;;;;;;;30.36;33.50;97480.41;10440904;28;20388;-64
2023/09/11 15:37:48;;;;;;;8.35;5.50;;;;;;;30.13;33.62;97473.56;10440449;28;20426;-64
2023/09/11 15:43:12;;;;;;;7.87;5.53;;;;;;;29.85;33.88;97466.72;10455488;28;20116;-64
2023/09/11 15:48:35;;;;;;;7.60;5.60;;;;;;;29.52;34.07;97469.28;10461543;28;20439;-65
2023/09/11 15:53:56;;;;;;;10.55;5.72;;;;;;;29.29;34.18;97468.09;10463041;28;20403;-65
2023/09/11 15:59:19;;;;;;;10.20;6.13;;;;;;;29.14;34.40;97481.19;10462435;28;20132;-64
2023/09/11 16:04:40;;;;;;;8.23;5.20;;;;;;;28.90;34.90;97471.38;10461915;28;20572;-64
2023/09/11 16:10:03;;;;;;;7.53;5.40;;;;;;;28.82;35.35;97465.66;10462347;28;20111;-65
2023/09/11 16:15:24;;;;;;;9.77;5.50;;;;;;;28.83;35.56;97467.09;10462259;28;20403;-64
2023/09/11 16:20:45;;;;;;;11.20;5.13;;;;;;;28.79;35.98;97470.72;10461977;28;20148;-64
2023/09/11 16:26:07;;;;;;;13.93;6.10;;;;;;;28.69;36.37;97467.22;10461583;28;20075;-64
2023/09/11 16:31:29;;;;;;;7.73;4.87;;;;;;;28.54;36.79;97463.75;10461515;28;20063;-64
2023/09/11 16:36:51;;;;;;;18.17;14.45;;;;;;;28.37;36.84;97466.03;10461248;28;20064;-64
2023/09/11 16:42:13;;;;;;;11.07;7.70;;;;;;;28.19;37.47;97469.72;10461261;28;20514;-64
2023/09/11 16:47:34;;;;;;;10.10;6.22;;;;;;;28.02;38.12;97468.41;10445889;28;20048;-64
2023/09/11 16:52:55;;;;;;;11.98;5.57;;;;;;;27.83;38.65;97467.06;10460822;28;20049;-64
2023/09/11 16:58:16;;;;;;;10.02;5.82;;;;;;;27.62;39.08;97467.16;10459899;28;20433;-64
2023/09/11 17:03:37;;;;;;;12.55;6.50;;;;;;;27.37;40.12;97462.94;10460338;28;20057;-64
2023/09/11 17:08:58;;;;;;;6.85;5.18;;;;;;;27.17;40.56;97463.00;10460202;28;20467;-64
2023/09/11 17:14:20;;;;;;;9.30;5.47;;;;;;;26.95;40.68;97475.91;10445076;28;20095;-64
2023/09/11 17:19:41;;;;;;;9.00;5.65;;;;;;;26.74;41.13;97455.19;10444862;28;20562;-64
2023/09/11 17:25:02;;;;;;;12.43;5.95;;;;;;;26.58;41.59;97465.91;10444382;28;20102;-64
2023/09/11 17:30:23;;;;;;;;;;;;;;;26.46;42.61;97467.34;10459526;28;20506;-64
2023/09/11 17:35:44;;;;;;;10.38;5.90;;;;;;;26.44;42.12;97470.22;10459079;28;19959;-62
2023/09/11 17:41:06;;;;;;;13.10;6.15;;;;;;;26.42;41.85;97472.34;10458583;28;20061;-64
2023/09/11 17:46:27;;;;;;;8.87;5.93;;;;;;;26.28;42.47;97475.88;10458748;28;20068;-64
2023/09/11 17:51:50;;;;;;;8.02;5.43;;;;;;;26.13;42.20;97472.28;10458287;28;20756;-64
2023/09/11 17:57:11;;;;;;;8.02;5.47;;;;;;;25.96;42.41;97482.25;10458516;28;20076;-64
2023/09/11 18:02:31;;;;;;;13.52;6.05;;;;;;;25.84;43.07;97476.50;10457758;28;20060;-64
2023/09/11 18:07:53;;;;;;;8.63;6.03;;;;;;;25.76;42.65;97477.19;10442769;28;20322;-64
2023/09/11 18:13:13;;;;;;;8.50;5.53;;;;;;;25.64;43.24;97477.13;10457869;28;20048;-61
2023/09/11 18:18:34;;;;;;;8.73;5.95;;;;;;;25.52;43.12;97483.50;10457541;28;20487;-64
2023/09/11 18:23:55;;;;;;;8.35;6.10;;;;;;;25.44;43.09;97488.47;10457467;28;20060;-64
2023/09/11 18:29:16;;;;;;;7.70;5.43;;;;;;;25.32;43.17;97484.13;10457161;28;20121;-64
2023/09/11 18:34:38;;;;;;;7.33;5.90;;;;;;;25.24;43.94;97500.50;10442474;28;20060;-64
2023/09/11 18:39:58;;;;;;;11.27;5.95;;;;;;;25.16;44.19;97495.47;10456721;28;20061;-64
2023/09/11 18:45:19;;;;;;;7.75;5.35;;;;;;;25.09;43.97;97493.97;10456417;28;20444;-64
2023/09/11 18:50:42;;;;;;;7.28;5.78;;;;;;;25.05;44.61;97496.81;10456715;28;20098;-64
2023/09/11 18:56:03;;;;;;;7.28;5.65;;;;;;;25.01;44.52;97485.38;10456468;28;20075;-62
2023/09/11 19:01:25;;;;;;;6.78;5.45;;;;;;;25.00;45.10;97492.50;10441812;28;20442;-62
2023/09/11 19:06:46;;;;;;;10.77;6.38;;;;;;;24.98;45.31;97483.91;10441008;28;20084;-61
2023/09/11 19:12:07;;;;;;;11.15;6.28;;;;;;;24.86;45.24;97483.81;10441287;28;20060;-62
2023/09/11 19:17:28;;;;;;;11.55;8.55;;;;;;;24.69;45.81;97480.13;10456025;28;20041;-61
2023/09/11 19:22:49;;;;;;;10.15;6.93;;;;;;;24.53;45.85;97483.56;10446979;28;20059;-62
2023/09/11 19:28:10;;;;;;;11.52;6.72;;;;;;;24.37;46.44;97486.28;10449308;28;20044;-62
2023/09/11 19:33:32;;;;;;;11.77;6.50;;;;;;;24.18;46.85;97488.94;10463883;28;20414;-61
2023/09/11 19:38:53;;;;;;;10.77;6.23;;;;;;;24.09;47.13;97484.56;10463979;28;20076;-62
2023/09/11 19:44:16;;;;;;;9.68;6.88;;;;;;;24.08;47.39;97480.28;10463335;28;20056;-62
2023/09/11 19:49:37;;;;;;;9.32;7.03;;;;;;;24.07;47.49;97483.81;10463370;28;20048;-61
2023/09/11 19:54:58;;;;;;;11.80;7.43;;;;;;;24.05;47.55;97487.38;10462928;28;20048;-61
2023/09/11 20:00:20;;;;;;;12.00;6.95;;;;;;;24.02;47.94;97488.75;10434430;28;20053;-61
2023/09/11 20:05:40;;;;;;;8.55;6.72;;;;;;;23.98;48.02;97471.63;10462556;28;20056;-61
2023/09/11 20:11:01;;;;;;;8.68;6.72;;;;;;;23.91;47.94;97487.22;10462601;28;20073;-64
2023/09/11 20:16:22;;;;;;;11.13;6.70;;;;;;;23.86;48.32;97488.59;10462462;28;20069;-62
2023/09/11 20:21:43;;;;;;;9.88;7.00;;;;;;;23.82;48.22;97477.13;10461801;28;20080;-62
2023/09/11 20:27:04;;;;;;;10.45;6.50;;;;;;;23.78;48.43;97474.25;10461901;28;20402;-62
2023/09/11 20:32:26;;;;;;;9.68;6.68;;;;;;;23.72;48.49;97477.03;10460353;28;20044;-62
2023/09/11 20:37:47;;;;;;;9.68;6.80;;;;;;;23.65;48.79;97476.97;10461529;28;20495;-62
2023/09/11 20:43:08;;;;;;;13.57;6.88;;;;;;;23.60;48.62;97478.31;10446434;28;20396;-62
2023/09/11 20:48:28;;;;;;;7.78;6.78;;;;;;;23.59;48.98;97479.75;10460853;28;20065;-62
2023/09/11 20:53:49;;;;;;;7.68;6.07;;;;;;;23.56;49.40;97481.09;10460858;28;20044;-62
2023/09/11 20:59:10;;;;;;;8.82;6.35;;;;;;;23.52;49.16;97481.03;10445861;28;20052;-62
2023/09/11 21:04:31;;;;;;;9.55;6.07;;;;;;;23.49;49.10;97479.59;10460408;28;20064;-62
2023/09/11 21:09:53;;;;;;;8.40;5.85;;;;;;;23.39;49.54;97476.63;10460175;28;20076;-62
2023/09/11 21:15:14;;;;;;;9.35;5.63;;;;;;;23.36;49.85;97475.88;10460015;28;20068;-62
2023/09/11 21:20:35;;;;;;;7.38;5.70;;;;;;;23.27;50.02;97476.47;10460042;28;20072;-62
2023/09/11 21:25:56;;;;;;;9.50;6.10;;;;;;;23.17;50.50;97482.75;10459507;28;20057;-62
2023/09/11 21:31:17;;;;;;;10.82;6.72;;;;;;;23.08;50.67;97473.38;10459555;28;20068;-62
2023/09/11 21:36:37;;;;;;;8.50;6.30;;;;;;;23.03;50.98;97476.84;10459068;28;20387;-62
2023/09/11 21:41:58;;;;;;;9.10;6.53;;;;;;;22.98;51.11;97478.91;10459135;28;20068;-62
2023/09/11 21:47:22;;;;;;;9.05;5.97;;;;;;;22.94;51.40;97478.84;10458532;28;20068;-62
2023/09/11 21:52:43;;;;;;;12.13;6.38;;;;;;;22.89;51.43;97477.34;10458685;28;20121;-62
2023/09/11 21:58:04;;;;;;;8.70;6.00;;;;;;;22.92;51.31;97469.56;10458191;28;20521;-62
2023/09/11 22:03:25;;;;;;;12.68;6.35;;;;;;;22.87;51.27;97471.63;10458332;28;20483;-62
2023/09/11 22:08:45;;;;;;;8.57;6.20;;;;;;;22.84;51.75;97464.47;10458127;28;20064;-62
2023/09/11 22:14:06;;;;;;;7.18;5.85;;;;;;;22.84;51.73;97475.84;10457810;28;20535;-62
2023/09/11 22:19:27;;;;;;;15.63;6.20;;;;;;;22.80;51.79;97472.94;10457716;28;20094;-62
2023/09/11 22:24:48;;;;;;;8.63;5.97;;;;;;;22.74;51.95;97467.13;10442293;28;20124;-62
2023/09/11 22:30:09;;;;;;;11.45;5.97;;;;;;;22.72;52.22;97464.97;10457332;28;20065;-62
2023/09/11 22:35:30;;;;;;;8.90;6.60;;;;;;;22.71;51.87;97466.38;10456989;28;20071;-62
2023/09/11 22:41:08;;;;;;;7.72;6.00;;;;;;;22.62;52.49;97464.09;10456919;28;20144;-62
2023/09/11 22:46:29;;;;;;;6.75;6.05;;;;;;;22.56;52.75;97465.44;10456915;28;20120;-62
2023/09/11 22:51:50;;;;;;;8.10;6.55;;;;;;;22.53;52.81;97466.81;10456610;28;20126;-62
2023/09/11 22:57:10;;;;;;;7.97;5.80;;;;;;;22.47;52.89;97458.19;10456026;28;20403;-62
2023/09/11 23:02:31;;;;;;;8.27;5.97;;;;;;;22.38;53.38;97464.41;10441104;28;20132;-62
2023/09/11 23:07:52;;;;;;;7.80;6.30;;;;;;;22.31;53.60;97463.63;10456281;28;20106;-62
2023/09/11 23:13:13;;;;;;;9.00;5.50;;;;;;;22.21;53.83;97455.63;10456211;28;20072;-62
2023/09/11 23:18:33;;;;;;;10.77;6.15;;;;;;;22.13;53.78;97460.44;10456264;28;20049;-62
2023/09/11 23:23:54;;;;;;;9.82;6.32;;;;;;;22.08;53.99;97462.50;10456261;28;20545;-62
2023/09/11 23:29:15;;;;;;;7.57;6.20;;;;;;;22.03;54.47;97463.09;10441025;28;20128;-62
2023/09/11 23:34:36;;;;;;;8.25;5.57;;;;;;;21.94;54.77;97467.91;10456109;28;20132;-62
2023/09/11 23:39:56;;;;;;;10.73;6.55;;;;;;;21.89;55.14;97463.53;10456102;28;20542;-62
2023/09/11 23:45:17;;;;;;;8.27;5.85;;;;;;;21.80;55.07;97462.66;10455727;28;20133;-62
2023/09/11 23:50:37;;;;;;;8.40;6.50;;;;;;;21.74;55.54;97467.53;10455909;28;20175;-62
2023/09/11 23:55:58;;;;;;;8.65;6.35;;;;;;;21.65;55.88;97463.81;10455630;28;20124;-62
